Beloit, Ohio
Current Conditions -  °F | °C
As of 3:51 PM on Thursday 18 Dec 2014 (Local Time) from KCAK Reporting Station
Overcast Overcast  
Wind Chill: 23°   Ceiling: 1500
Heat Index: 29°   Visibility: 10mi
Dew Point: 21°   Wind: 6mph
Humidity: 72%   Direction: 270°W
Pressure: 30.16"   Gusts: NA
Location:  40.92°N, 80.99°W
Report Text: KCAK 182051Z 27005KT 10SM OVC015 M02/M06 A3016 RMK AO2 SNE32 SLP227 P0000 60000 T10171061 55001
Loading
Personal Weather Stations






























Interactive Weather Map New forecast layout! Learn more

10-Day Weather Forecast

Advertisements
Track Severe Weather on mobile